createdAt,value
2022-10-13T00:01:57.375Z,97289.06
2022-10-13T00:04:23.919Z,97277.16
2022-10-13T00:06:50.256Z,97277.97
2022-10-13T00:09:16.595Z,97266.88
2022-10-13T00:11:42.928Z,97268.63
2022-10-13T00:14:09.283Z,97269.53
2022-10-13T00:16:36.009Z,97272.94
2022-10-13T00:19:02.466Z,97262.69
2022-10-13T00:21:29.530Z,97267.84
2022-10-13T00:23:56.287Z,97262.69
2022-10-13T00:26:24.330Z,97266.06
2022-10-13T00:28:52.914Z,97275.69
2022-10-13T00:31:25.632Z,97277.31
2022-10-13T00:33:52.923Z,97277.41
2022-10-13T00:36:20.210Z,97281.75
2022-10-13T00:38:46.723Z,97285.19
2022-10-13T00:41:13.394Z,97284.41
2022-10-13T00:43:59.907Z,97282.66
2022-10-13T00:46:29.983Z,97290.22
2022-10-13T00:48:59.017Z,97288.56
2022-10-13T00:51:30.101Z,97291.91
2022-10-13T00:53:58.137Z,97288.38
2022-10-13T00:56:26.111Z,97283.22
2022-10-13T00:58:53.543Z,97278.88
2022-10-13T01:01:19.991Z,97281.47
2022-10-13T01:03:46.535Z,97280.53
2022-10-13T01:06:14.164Z,97292.44
2022-10-13T01:08:40.549Z,97278.75
2022-10-13T01:11:18.772Z,97283.88
2022-10-13T01:13:45.389Z,97283.03
2022-10-13T01:16:45.116Z,97281.38
2022-10-13T01:19:30.162Z,97279.69
2022-10-13T01:22:29.495Z,97279.69
2022-10-13T01:25:07.806Z,97283.03
2022-10-13T01:27:56.000Z,97280.38
2022-10-13T01:30:23.286Z,97271.00
2022-10-13T01:33:04.244Z,97279.47
2022-10-13T01:36:00.974Z,97285.50
2022-10-13T01:38:48.860Z,97274.28
2022-10-13T01:41:36.835Z,97276.75
2022-10-13T01:44:20.875Z,97268.06
2022-10-13T01:46:50.669Z,97262.19
2022-10-13T01:49:19.769Z,97257.91
2022-10-13T01:51:47.253Z,97260.56
2022-10-13T01:54:13.567Z,97262.25
2022-10-13T01:56:39.963Z,97257.13
2022-10-13T01:59:11.326Z,97260.56
2022-10-13T02:01:43.660Z,97258.06
2022-10-13T02:04:23.442Z,97264.94
2022-10-13T02:07:22.195Z,97267.53
2022-10-13T02:09:54.318Z,97264.06
2022-10-13T02:12:28.402Z,97260.56
2022-10-13T02:14:57.068Z,97263.75
2022-10-13T02:17:26.229Z,97256.84
2022-10-13T02:19:54.165Z,97259.47
2022-10-13T02:22:24.419Z,97264.59
2022-10-13T02:24:50.968Z,97261.16
2022-10-13T02:27:17.581Z,97251.78
2022-10-13T02:29:56.119Z,97250.06
2022-10-13T02:32:23.183Z,97252.59
2022-10-13T02:34:50.429Z,97250.03
2022-10-13T02:37:17.455Z,97247.53
2022-10-13T02:39:43.883Z,97245.91
2022-10-13T02:42:10.289Z,97251.13
2022-10-13T02:44:36.615Z,97242.53
2022-10-13T02:47:03.073Z,97240.88
2022-10-13T02:49:29.418Z,97240.94
2022-10-13T02:51:55.804Z,97240.06
2022-10-13T02:54:22.146Z,97235.88
2022-10-13T02:56:48.490Z,97241.84
2022-10-13T02:59:14.936Z,97236.69
2022-10-13T03:01:42.090Z,97235.88
2022-10-13T03:04:08.969Z,97237.66
2022-10-13T03:06:35.484Z,97244.53
2022-10-13T03:09:01.863Z,97241.16
2022-10-13T03:11:28.303Z,97236.91
2022-10-13T03:13:54.699Z,97234.38
2022-10-13T03:16:21.090Z,97231.88
2022-10-13T03:18:47.433Z,97225.91
2022-10-13T03:21:14.609Z,97226.72
2022-10-13T03:23:40.968Z,97230.13
2022-10-13T03:26:07.334Z,97231.09
2022-10-13T03:28:34.242Z,97225.91
2022-10-13T03:31:11.738Z,97225.84
2022-10-13T03:33:39.307Z,97220.66
2022-10-13T03:36:05.987Z,97226.69
2022-10-13T03:38:33.982Z,97241.34
2022-10-13T03:41:12.422Z,97233.63
2022-10-13T03:43:39.017Z,97233.53
2022-10-13T03:46:07.104Z,97237.81
2022-10-13T03:48:35.286Z,97234.44
2022-10-13T03:51:06.402Z,97239.59
2022-10-13T03:53:33.284Z,97243.03
2022-10-13T03:55:59.779Z,97241.22
2022-10-13T03:58:28.950Z,97238.53
2022-10-13T04:00:56.796Z,97240.25
2022-10-13T04:03:24.325Z,97241.16
2022-10-13T04:05:50.790Z,97243.78
2022-10-13T04:08:18.188Z,97236.91
2022-10-13T04:10:44.634Z,97236.97
2022-10-13T04:13:11.164Z,97236.22
2022-10-13T04:15:39.043Z,97239.69
2022-10-13T04:18:07.228Z,97237.13
2022-10-13T04:20:39.953Z,97244.94
2022-10-13T04:23:07.508Z,97248.41
2022-10-13T04:25:38.508Z,97245.03
2022-10-13T04:28:06.014Z,97247.53
2022-10-13T04:30:35.589Z,97241.56
2022-10-13T04:33:02.309Z,97249.19
2022-10-13T04:35:29.177Z,97247.47
2022-10-13T04:37:57.869Z,97249.19
2022-10-13T04:40:25.071Z,97247.47
2022-10-13T04:42:51.895Z,97248.34
2022-10-13T04:45:18.431Z,97240.66
2022-10-13T04:47:44.876Z,97250.03
2022-10-13T04:50:11.409Z,97247.41
2022-10-13T04:52:37.825Z,97246.47
2022-10-13T04:55:04.482Z,97239.59
2022-10-13T04:57:30.912Z,97235.31
2022-10-13T04:59:57.262Z,97240.41
2022-10-13T05:02:23.588Z,97241.28
2022-10-13T05:04:49.924Z,97236.13
2022-10-13T05:07:18.541Z,97240.38
2022-10-13T05:09:45.506Z,97237.81
2022-10-13T05:12:11.877Z,97232.63
2022-10-13T05:14:38.232Z,97237.81
2022-10-13T05:17:04.675Z,97244.66
2022-10-13T05:19:31.086Z,97232.66
2022-10-13T05:21:57.444Z,97233.41
2022-10-13T05:24:31.022Z,97231.69
2022-10-13T05:26:57.759Z,97234.25
2022-10-13T05:29:24.101Z,97231.69
2022-10-13T05:31:50.503Z,97229.13
2022-10-13T05:34:16.828Z,97221.50
2022-10-13T05:36:43.244Z,97230.09
2022-10-13T05:39:10.833Z,97233.63
2022-10-13T05:41:38.780Z,97231.09
2022-10-13T05:44:08.499Z,97230.28
2022-10-13T05:46:35.460Z,97222.59
2022-10-13T05:49:02.101Z,97226.03
2022-10-13T05:51:33.458Z,97224.22
2022-10-13T05:54:24.243Z,97221.00
2022-10-13T05:57:02.650Z,97221.75
2022-10-13T05:59:33.388Z,97225.16
2022-10-13T06:02:02.296Z,97223.47
2022-10-13T06:04:34.562Z,97220.91
2022-10-13T06:07:00.958Z,97215.75
2022-10-13T06:09:37.913Z,97218.28
2022-10-13T06:12:05.450Z,97217.47
2022-10-13T06:14:31.884Z,97218.34
2022-10-13T06:16:58.460Z,97223.56
2022-10-13T06:19:24.858Z,97222.63
2022-10-13T06:21:51.374Z,97222.69
2022-10-13T06:24:17.971Z,97219.31
2022-10-13T06:26:44.282Z,97224.50
2022-10-13T06:29:10.700Z,97218.50
2022-10-13T06:31:37.179Z,97217.66
2022-10-13T06:34:09.635Z,97218.44
2022-10-13T06:36:36.288Z,97218.44
2022-10-13T06:39:02.626Z,97215.09
2022-10-13T06:41:28.959Z,97215.09
2022-10-13T06:43:55.299Z,97197.09
2022-10-13T06:46:21.799Z,97208.34
2022-10-13T06:48:51.801Z,97211.78
2022-10-13T06:51:18.532Z,97222.00
2022-10-13T06:53:45.136Z,97215.19
2022-10-13T06:56:11.480Z,97220.50
2022-10-13T06:58:38.466Z,97225.59
2022-10-13T07:01:06.430Z,97218.81
2022-10-13T07:03:33.564Z,97218.03
2022-10-13T07:06:05.630Z,97230.03
2022-10-13T07:08:33.025Z,97226.56
2022-10-13T07:10:59.854Z,97233.38
2022-10-13T07:13:26.248Z,97233.47
2022-10-13T07:15:52.625Z,97230.94
2022-10-13T07:18:19.050Z,97227.53
2022-10-13T07:20:45.399Z,97218.94
2022-10-13T07:23:11.740Z,97225.69
2022-10-13T07:25:38.107Z,97217.97
2022-10-13T07:28:04.522Z,97215.44
2022-10-13T07:30:30.898Z,97223.19
2022-10-13T07:32:57.300Z,97220.69
2022-10-13T07:35:30.290Z,97208.69
2022-10-13T07:37:57.193Z,97216.50
2022-10-13T07:40:23.919Z,97207.91
2022-10-13T07:42:50.401Z,97207.91
2022-10-13T07:45:16.971Z,97207.03
2022-10-13T07:47:43.318Z,97217.25
2022-10-13T07:50:10.443Z,97214.75
2022-10-13T07:52:37.093Z,97212.25
2022-10-13T07:55:03.929Z,97205.47
2022-10-13T07:57:30.315Z,97199.47
2022-10-13T07:59:56.656Z,97208.03
2022-10-13T08:02:23.019Z,97197.00
2022-10-13T08:04:49.356Z,97201.31
2022-10-13T08:07:16.806Z,97196.22
2022-10-13T08:09:43.926Z,97188.50
2022-10-13T08:12:10.768Z,97192.81
2022-10-13T08:14:37.288Z,97191.09
2022-10-13T08:17:03.699Z,97191.16
2022-10-13T08:19:30.165Z,97193.75
2022-10-13T08:21:58.619Z,97197.13
2022-10-13T08:24:26.479Z,97204.00
2022-10-13T08:26:52.959Z,97205.72
2022-10-13T08:29:22.496Z,97201.44
2022-10-13T08:31:50.927Z,97198.97
2022-10-13T08:34:17.518Z,97202.44
2022-10-13T08:36:44.019Z,97201.47
2022-10-13T08:39:10.688Z,97203.13
2022-10-13T08:41:40.816Z,97208.31
2022-10-13T08:45:10.449Z,97205.84
2022-10-13T08:47:44.203Z,97207.56
2022-10-13T08:50:16.519Z,97205.00
2022-10-13T08:52:51.564Z,97196.47
2022-10-13T08:55:33.274Z,97196.47
2022-10-13T08:58:01.858Z,97203.28
2022-10-13T09:00:29.505Z,97206.69
2022-10-13T09:03:38.561Z,97195.59
2022-10-13T09:06:16.430Z,97192.06
2022-10-13T09:08:49.923Z,97197.16
2022-10-13T09:11:16.818Z,97198.03
2022-10-13T09:13:43.460Z,97198.03
2022-10-13T09:16:09.871Z,97204.97
2022-10-13T09:18:37.496Z,97201.53
2022-10-13T09:21:09.894Z,97201.56
2022-10-13T09:23:39.565Z,97191.28
2022-10-13T09:26:15.768Z,97189.56
2022-10-13T09:28:42.665Z,97190.47
2022-10-13T09:31:24.506Z,97187.94
2022-10-13T09:34:15.002Z,97193.06
2022-10-13T09:37:01.797Z,97187.94
2022-10-13T09:39:28.207Z,97185.34
2022-10-13T09:42:22.786Z,97179.38
2022-10-13T09:44:58.488Z,97175.06
2022-10-13T09:47:27.195Z,97184.50
2022-10-13T09:50:20.565Z,97191.38
2022-10-13T09:52:47.838Z,97185.38
2022-10-13T09:55:33.072Z,97182.81
2022-10-13T09:58:12.847Z,97186.25
2022-10-13T10:00:40.177Z,97181.06
2022-10-13T10:03:32.553Z,97180.25
2022-10-13T10:06:14.477Z,97177.69
2022-10-13T10:09:02.797Z,97177.69
2022-10-13T10:11:42.226Z,97175.09
2022-10-13T10:14:28.740Z,97178.53
2022-10-13T10:17:20.811Z,97163.94
2022-10-13T10:20:16.740Z,97171.66
2022-10-13T10:23:04.660Z,97175.06
2022-10-13T10:25:51.067Z,97168.22
2022-10-13T10:28:39.773Z,97164.78
2022-10-13T10:31:18.997Z,97157.06
2022-10-13T10:34:03.712Z,97158.78
2022-10-13T10:36:50.520Z,97157.06
2022-10-13T10:39:46.221Z,97155.34
2022-10-13T10:42:26.048Z,97147.59
2022-10-13T10:44:54.861Z,97146.75
2022-10-13T10:47:26.897Z,97144.16
2022-10-13T10:50:01.402Z,97134.75
2022-10-13T10:52:47.967Z,97133.03
2022-10-13T10:55:26.027Z,97139.88
2022-10-13T10:58:04.412Z,97148.47
2022-10-13T11:00:39.092Z,97141.63
2022-10-13T11:03:33.472Z,97141.63
2022-10-13T11:06:05.701Z,97135.59
2022-10-13T11:08:38.014Z,97128.75
2022-10-13T11:11:26.574Z,97132.16
2022-10-13T11:14:02.134Z,97120.19
2022-10-13T11:16:49.879Z,97118.47
2022-10-13T11:19:39.539Z,97109.88
2022-10-13T11:22:05.853Z,97108.94
2022-10-13T11:24:35.111Z,97109.78
2022-10-13T11:27:19.571Z,97106.34
2022-10-13T11:29:46.554Z,97102.84
2022-10-13T11:32:30.292Z,97100.31
2022-10-13T11:35:19.938Z,97095.19
2022-10-13T11:38:07.633Z,97093.50
2022-10-13T11:41:06.811Z,97085.72
2022-10-13T11:44:06.455Z,97090.84
2022-10-13T11:46:56.846Z,97090.00
2022-10-13T11:49:48.707Z,97089.97
2022-10-13T11:52:31.364Z,97083.13
2022-10-13T11:55:15.094Z,97080.53
2022-10-13T11:57:41.537Z,97072.84
2022-10-13T12:00:15.984Z,97070.25
2022-10-13T12:02:50.698Z,97070.22
2022-10-13T12:05:26.262Z,97065.06
2022-10-13T12:07:56.926Z,97070.13
2022-10-13T12:10:37.843Z,97058.84
2022-10-13T12:13:05.193Z,97059.78
2022-10-13T12:15:37.523Z,97048.63
2022-10-13T12:18:23.970Z,97047.84
2022-10-13T12:20:56.507Z,97055.50
2022-10-13T12:23:22.975Z,97043.44
2022-10-13T12:25:56.482Z,97040.75
2022-10-13T12:28:23.883Z,97038.91
2022-10-13T12:30:57.096Z,97033.66
2022-10-13T12:33:28.897Z,97038.13
2022-10-13T12:35:55.826Z,97027.72
2022-10-13T12:38:23.072Z,97024.97
2022-10-13T12:40:51.198Z,97024.81
2022-10-13T12:43:22.122Z,97017.97
2022-10-13T12:45:48.588Z,97021.19
2022-10-13T12:48:36.138Z,97021.41
2022-10-13T12:51:24.076Z,97022.53
2022-10-13T12:53:50.552Z,97023.53
2022-10-13T12:56:31.005Z,97021.13
2022-10-13T12:58:58.570Z,97020.13
2022-10-13T13:01:35.117Z,97019.22
2022-10-13T13:04:21.027Z,97021.22
2022-10-13T13:07:05.449Z,97022.22
2022-10-13T13:09:34.064Z,97022.28
2022-10-13T13:12:04.770Z,97017.16
2022-10-13T13:14:38.336Z,97016.31
2022-10-13T13:20:32.172Z,97012.97
2022-10-13T13:22:58.940Z,97025.09
2022-10-13T13:25:25.338Z,97020.84
2022-10-13T13:27:52.006Z,97013.97
2022-10-13T13:30:21.698Z,97013.06
2022-10-13T13:32:48.226Z,97020.75
2022-10-13T13:35:14.714Z,97013.81
2022-10-13T13:37:50.941Z,97006.13
2022-10-13T13:40:27.988Z,97004.41
2022-10-13T13:42:56.499Z,97002.78
2022-10-13T13:45:26.786Z,97001.91
2022-10-13T13:47:56.758Z,97005.41
2022-10-13T13:50:28.667Z,97007.13
2022-10-13T13:52:55.009Z,96995.09
2022-10-13T13:55:22.417Z,96989.94
2022-10-13T13:57:48.818Z,96989.03
2022-10-13T14:00:16.831Z,96990.69
2022-10-13T14:02:44.552Z,96982.03
2022-10-13T14:05:12.268Z,96984.59
2022-10-13T14:07:39.450Z,96981.13
2022-10-13T14:10:07.233Z,96973.38
2022-10-13T14:12:34.061Z,96983.72
2022-10-13T14:15:00.450Z,96979.44
2022-10-13T14:17:27.987Z,96979.47
2022-10-13T14:19:54.931Z,96982.91
2022-10-13T14:22:23.050Z,96979.47
2022-10-13T14:24:49.641Z,96994.97
2022-10-13T14:27:16.405Z,96995.09
2022-10-13T14:29:42.908Z,96989.13
2022-10-13T14:32:09.382Z,96985.69
2022-10-13T14:34:35.873Z,96980.56
2022-10-13T14:37:02.353Z,96983.19
2022-10-13T14:39:28.963Z,96978.06
2022-10-13T14:41:55.440Z,96980.66
2022-10-13T14:44:21.961Z,96979.78
2022-10-13T14:46:48.431Z,96984.94
2022-10-13T14:49:14.850Z,96978.06
2022-10-13T14:51:42.314Z,96968.66
2022-10-13T14:54:08.940Z,96978.09
2022-10-13T14:56:35.916Z,96975.56
2022-10-13T14:59:05.119Z,96973.84
2022-10-13T15:01:33.369Z,96972.94
2022-10-13T15:04:03.351Z,96977.25
2022-10-13T15:06:31.981Z,96973.78
2022-10-13T15:08:58.554Z,96973.72
2022-10-13T15:11:26.765Z,96976.25
2022-10-13T15:13:53.457Z,96975.38
2022-10-13T15:16:32.538Z,96980.47
2022-10-13T15:18:59.301Z,96959.06
2022-10-13T15:21:26.865Z,96968.53
2022-10-13T15:23:53.228Z,96968.56
2022-10-13T15:26:20.275Z,96969.50
2022-10-13T15:28:49.732Z,96972.09
2022-10-13T15:31:17.757Z,96972.94
2022-10-13T15:33:46.767Z,96973.84
2022-10-13T15:36:13.205Z,96972.13
2022-10-13T15:38:39.822Z,96977.31
2022-10-13T15:41:06.879Z,96971.31
2022-10-13T15:43:34.255Z,96973.03
2022-10-13T15:46:04.019Z,96977.38
2022-10-13T15:48:31.805Z,96980.84
2022-10-13T15:50:58.283Z,96988.63
2022-10-13T15:53:24.880Z,96977.50
2022-10-13T15:55:51.324Z,96973.19
2022-10-13T15:58:17.883Z,96977.53
2022-10-13T16:00:44.825Z,96981.81
2022-10-13T16:03:16.457Z,96974.16
2022-10-13T16:05:44.187Z,96964.75
2022-10-13T16:08:10.770Z,96977.66
2022-10-13T16:10:42.083Z,96976.00
2022-10-13T16:13:12.341Z,96982.03
2022-10-13T16:15:38.848Z,96978.63
2022-10-13T16:18:05.468Z,96974.34
2022-10-13T16:20:37.570Z,96982.94
2022-10-13T16:23:04.616Z,96973.53
2022-10-13T16:25:31.945Z,96975.25
2022-10-13T16:27:59.370Z,96974.41
2022-10-13T16:30:25.883Z,96967.56
2022-10-13T16:32:52.218Z,96980.41
2022-10-13T16:35:18.580Z,96981.28
2022-10-13T16:37:44.891Z,96979.56
2022-10-13T16:40:11.300Z,96975.25
2022-10-13T16:42:37.752Z,96974.41
2022-10-13T16:45:04.751Z,96978.69
2022-10-13T16:47:32.119Z,96988.13
2022-10-13T16:49:58.454Z,96982.13
2022-10-13T16:52:24.815Z,96963.31
2022-10-13T16:54:51.251Z,96976.16
2022-10-13T16:57:17.912Z,96977.84
2022-10-13T16:59:44.382Z,96976.09
2022-10-13T17:02:14.353Z,96972.69
2022-10-13T17:04:41.224Z,96970.09
2022-10-13T17:07:07.946Z,96960.66
2022-10-13T17:09:34.465Z,96976.09
2022-10-13T17:12:01.187Z,96972.69
2022-10-13T17:14:27.676Z,96969.25
2022-10-13T17:16:57.783Z,96968.41
2022-10-13T17:19:25.065Z,96969.25
2022-10-13T17:21:51.495Z,96970.94
2022-10-13T17:24:17.966Z,96977.81
2022-10-13T17:26:44.374Z,96971.81
2022-10-13T17:29:10.789Z,96976.94
2022-10-13T17:31:37.836Z,96973.50
2022-10-13T17:34:05.965Z,96980.34
2022-10-13T17:36:33.910Z,96972.63
2022-10-13T17:39:06.782Z,96982.94
2022-10-13T17:41:33.855Z,96972.66
2022-10-13T17:44:00.582Z,96972.63
2022-10-13T17:46:38.772Z,96971.75
2022-10-13T17:49:09.135Z,96972.63
2022-10-13T17:51:35.611Z,96974.34
2022-10-13T17:54:02.331Z,96968.34
2022-10-13T17:56:28.990Z,96959.78
2022-10-13T17:58:55.616Z,96961.50
2022-10-13T18:01:28.254Z,96963.22
2022-10-13T18:03:57.461Z,96957.22
2022-10-13T18:06:24.118Z,96961.47
2022-10-13T18:08:50.727Z,96954.63
2022-10-13T18:11:19.275Z,96961.44
2022-10-13T18:13:46.214Z,96962.28
2022-10-13T18:16:17.166Z,96955.44
2022-10-13T18:18:44.924Z,96959.72
2022-10-13T18:21:13.720Z,96958.84
2022-10-13T18:23:41.810Z,96956.22
2022-10-13T18:26:12.027Z,96952.78
2022-10-13T18:28:45.411Z,96949.38
2022-10-13T18:31:20.565Z,96959.63
2022-10-13T18:33:47.850Z,96962.22
2022-10-13T18:36:20.017Z,96963.91
2022-10-13T18:38:47.422Z,96961.34
2022-10-13T18:41:15.108Z,96963.94
2022-10-13T18:43:41.550Z,96957.97
2022-10-13T18:46:08.398Z,96956.25
2022-10-13T18:48:35.781Z,96955.41
2022-10-13T18:51:10.323Z,96952.81
2022-10-13T18:53:38.409Z,96946.81
2022-10-13T18:56:16.167Z,96949.34
2022-10-13T18:58:42.815Z,96951.88
2022-10-13T19:01:12.213Z,96940.72
2022-10-13T19:03:40.187Z,96920.13
2022-10-13T19:06:09.695Z,96943.19
2022-10-13T19:08:36.823Z,96933.69
2022-10-13T19:11:21.984Z,96953.34
2022-10-13T19:13:50.303Z,96944.75
2022-10-13T19:16:19.907Z,96948.16
2022-10-13T19:18:47.166Z,96947.28
2022-10-13T19:21:13.716Z,96944.72
2022-10-13T19:23:41.186Z,96943.91
2022-10-13T19:26:15.678Z,96942.25
2022-10-13T19:28:43.074Z,96943.22
2022-10-13T19:31:14.231Z,96941.56
2022-10-13T19:33:44.759Z,96946.69
2022-10-13T19:36:19.241Z,96945.03
2022-10-13T19:38:45.596Z,96937.38
2022-10-13T19:41:12.084Z,96935.69
2022-10-13T19:43:38.418Z,96936.53
2022-10-13T19:46:07.067Z,96939.13
2022-10-13T19:48:33.916Z,96929.69
2022-10-13T19:51:01.588Z,96936.56
2022-10-13T19:53:28.020Z,96931.47
2022-10-13T19:55:54.454Z,96926.28
2022-10-13T19:58:23.773Z,96922.88
2022-10-13T20:00:50.176Z,96922.88
2022-10-13T20:03:16.974Z,96922.84
2022-10-13T20:05:43.677Z,96921.97
2022-10-13T20:08:11.518Z,96921.09
2022-10-13T20:10:43.003Z,96915.94
2022-10-13T20:13:10.824Z,96915.03
2022-10-13T20:15:42.656Z,96920.16
2022-10-13T20:18:12.898Z,96922.72
2022-10-13T20:20:40.423Z,96923.56
2022-10-13T20:23:07.615Z,96925.28
2022-10-13T20:25:37.938Z,96922.69
2022-10-13T20:28:05.512Z,96917.56
2022-10-13T20:30:32.731Z,96911.56
2022-10-13T20:33:00.648Z,96903.00
2022-10-13T20:35:27.655Z,96902.13
2022-10-13T20:37:54.047Z,96896.16
2022-10-13T20:40:20.471Z,96904.63
2022-10-13T20:42:51.718Z,96913.22
2022-10-13T20:45:18.869Z,96914.97
2022-10-13T20:47:46.665Z,96913.34
2022-10-13T20:50:13.048Z,96911.66
2022-10-13T20:52:40.502Z,96911.59
2022-10-13T20:55:07.105Z,96905.63
2022-10-13T20:57:33.552Z,96912.47
2022-10-13T20:59:59.963Z,96912.47
2022-10-13T21:02:26.412Z,96909.91
2022-10-13T21:04:52.943Z,96909.94
2022-10-13T21:07:19.765Z,96907.38
2022-10-13T21:09:50.195Z,96909.09
2022-10-13T21:12:19.215Z,96897.09
2022-10-13T21:14:45.557Z,96922.78
2022-10-13T21:17:11.973Z,96921.91
2022-10-13T21:19:38.389Z,96919.34
2022-10-13T21:22:04.770Z,96916.81
2022-10-13T21:24:31.236Z,96915.94
2022-10-13T21:26:57.766Z,96917.66
2022-10-13T21:29:24.366Z,96917.66
2022-10-13T21:31:50.802Z,96914.25
2022-10-13T21:34:17.303Z,96920.22
2022-10-13T21:36:44.851Z,96915.97
2022-10-13T21:39:11.510Z,96927.97
2022-10-13T21:41:37.895Z,96925.44
2022-10-13T21:44:04.324Z,96916.00
2022-10-13T21:46:33.305Z,96948.50
2022-10-13T21:49:02.360Z,96960.53
2022-10-13T21:51:39.341Z,96966.44
2022-10-13T21:54:11.414Z,96957.91
2022-10-13T21:56:39.698Z,96933.91
2022-10-13T21:59:06.815Z,96931.38
2022-10-13T22:01:34.172Z,96943.31
2022-10-13T22:04:01.586Z,96950.13
2022-10-13T22:06:29.764Z,96945.03
2022-10-13T22:08:57.742Z,96947.59
2022-10-13T22:11:27.250Z,96942.47
2022-10-13T22:13:56.332Z,96942.50
2022-10-13T22:16:31.226Z,96936.47
2022-10-13T22:18:58.390Z,96941.63
2022-10-13T22:21:28.111Z,96949.34
2022-10-13T22:24:00.055Z,96952.75
2022-10-13T22:26:28.418Z,96951.09
2022-10-13T22:28:57.155Z,96948.50
2022-10-13T22:31:23.661Z,96945.97
2022-10-13T22:33:53.455Z,96945.94
2022-10-13T22:36:24.879Z,96942.50
2022-10-13T22:38:54.095Z,96944.16
2022-10-13T22:41:21.455Z,96943.28
2022-10-13T22:43:56.054Z,96931.25
2022-10-13T22:46:24.996Z,96927.00
2022-10-13T22:48:51.514Z,96931.19
2022-10-13T22:51:23.250Z,96923.44
2022-10-13T22:53:50.428Z,96926.84
2022-10-13T22:56:23.751Z,96933.75
2022-10-13T22:58:55.887Z,96938.88
2022-10-13T23:01:23.106Z,96911.44
2022-10-13T23:03:51.385Z,96933.81
2022-10-13T23:06:20.866Z,96932.94
2022-10-13T23:08:47.415Z,96924.41
2022-10-13T23:11:14.051Z,96927.81
2022-10-13T23:13:40.544Z,96915.84
2022-10-13T23:16:10.350Z,96907.31
2022-10-13T23:18:37.139Z,96916.69
2022-10-13T23:21:08.708Z,96915.81
2022-10-13T23:23:35.462Z,96911.56
2022-10-13T23:26:06.376Z,96914.13
2022-10-13T23:28:34.616Z,96908.06
2022-10-13T23:31:03.270Z,96908.00
2022-10-13T23:33:30.171Z,96903.72
2022-10-13T23:35:57.967Z,96906.38
2022-10-13T23:38:25.652Z,96907.19
2022-10-13T23:40:52.385Z,96905.56
2022-10-13T23:43:19.658Z,96902.06
2022-10-13T23:45:46.306Z,96908.13
2022-10-13T23:48:12.722Z,96911.56
2022-10-13T23:50:39.079Z,96912.41
2022-10-13T23:53:05.501Z,96903.00
2022-10-13T23:55:31.860Z,96905.56
2022-10-13T23:57:58.189Z,96909.88
